UDSG

Details ICAO UDSG (LWN)
Name GYUMRI
Region Armenia
Timezone Asia/Yerevan (UTC+4.0)
Plans Departing 10
Arriving 8
Stats Elevation 5,000 ft / 1,524 m (AMSL)
Location 40.750369° 43.859341°
Runways 1
Magnetic Variation 6.363° E
Sunrise 2017-12-17 04:24:14 UTC / 2017-12-17 08:24:14 Local
Sunset 2017-12-17 13:39:45 UTC / 2017-12-17 17:39:45 Local
Advertisement - Login to hide

Runways

ID Width Length Bearing (true) Bearing (mag) Surface Threshold Offset Overrun Length
02 147 ft / 45 m 10,531 ft / 3,210 m 23.60° 17.24° Asphalt 0 ft / 0 m 0 ft / 0 m
20 147 ft / 45 m 10,531 ft / 3,210 m 203.61° 197.25° Asphalt 0 ft / 0 m 0 ft / 0 m

Map

Weather


0- 5 10 15 20 25 30 35+ Temperature / ° C

Clouds and Precipitation
Forecast for 2017-12-17 06:00 UTC. Updated 2 hours ago

Ground ~20,000 ft ~40,000 ft Winds

METAR

UDSG 170230Z 00000KT 6000 SCT049 M09/M10 Q1024 R02/CLRD70 NOSIG

TAF

TAF UDSG 162301Z 1700/1724 VRB04KT 5000 BR SCT050 TEMPO 1700/1706 0800 FZFG VV00

Frequencies

Recorded 128.70 MHz ATIS
Approach 127.70 MHz GYUMRI APP
Tower 120.60 MHz GYUMRI TWR
Warning: Do not use this data for real-world aviation or navigation. No guarantee of current accuracy is given.